sensor_id;sensor_type;location;lat;lon;timestamp;pressure;altitude;pressure_sealevel;temperature;humidity
66945;BME280;53853;51.982;5.928;2023-05-19T00:01:46;102649.72;;;11.08;62.89
66945;BME280;53853;51.982;5.928;2023-05-19T00:04:19;102639.16;;;11.06;63.06
66945;BME280;53853;51.982;5.928;2023-05-19T00:06:50;102639.38;;;11.03;63.11
66945;BME280;53853;51.982;5.928;2023-05-19T00:09:20;102642.03;;;11.03;63.28
66945;BME280;53853;51.982;5.928;2023-05-19T00:11:53;102641.31;;;11.01;63.30
66945;BME280;53853;51.982;5.928;2023-05-19T00:14:23;102647.69;;;10.98;63.69
66945;BME280;53853;51.982;5.928;2023-05-19T00:16:55;102647.06;;;10.95;64.34
66945;BME280;53853;51.982;5.928;2023-05-19T00:19:27;102648.97;;;10.93;64.01
66945;BME280;53853;51.982;5.928;2023-05-19T00:21:58;102644.84;;;10.88;64.32
66945;BME280;53853;51.982;5.928;2023-05-19T00:24:28;102648.44;;;10.87;64.29
66945;BME280;53853;51.982;5.928;2023-05-19T00:27:00;102640.66;;;10.84;64.75
66945;BME280;53853;51.982;5.928;2023-05-19T00:29:30;102641.84;;;10.80;64.93
66945;BME280;53853;51.982;5.928;2023-05-19T00:32:00;102641.09;;;10.78;65.03
66945;BME280;53853;51.982;5.928;2023-05-19T00:34:30;102638.53;;;10.77;64.83
66945;BME280;53853;51.982;5.928;2023-05-19T00:37:00;102632.56;;;10.73;65.14
66945;BME280;53853;51.982;5.928;2023-05-19T00:39:29;102631.81;;;10.71;65.35
66945;BME280;53853;51.982;5.928;2023-05-19T00:42:02;102618.91;;;10.65;65.42
66945;BME280;53853;51.982;5.928;2023-05-19T00:44:32;102616.47;;;10.62;65.58
66945;BME280;53853;51.982;5.928;2023-05-19T00:47:02;102626.50;;;10.58;65.80
66945;BME280;53853;51.982;5.928;2023-05-19T00:49:32;102613.25;;;10.57;65.89
66945;BME280;53853;51.982;5.928;2023-05-19T00:52:02;102617.72;;;10.56;66.12
66945;BME280;53853;51.982;5.928;2023-05-19T00:54:33;102607.94;;;10.57;65.83
66945;BME280;53853;51.982;5.928;2023-05-19T00:57:07;102615.16;;;10.55;66.30
66945;BME280;53853;51.982;5.928;2023-05-19T00:59:37;102616.13;;;10.54;66.33
66945;BME280;53853;51.982;5.928;2023-05-19T01:02:07;102623.41;;;10.51;66.43
66945;BME280;53853;51.982;5.928;2023-05-19T01:04:37;102620.72;;;10.51;66.58
66945;BME280;53853;51.982;5.928;2023-05-19T01:07:09;102615.50;;;10.50;66.54
66945;BME280;53853;51.982;5.928;2023-05-19T01:09:39;102627.22;;;10.47;66.79
66945;BME280;53853;51.982;5.928;2023-05-19T01:12:12;102622.94;;;10.45;66.81
66945;BME280;53853;51.982;5.928;2023-05-19T01:14:42;102630.94;;;10.45;67.13
66945;BME280;53853;51.982;5.928;2023-05-19T01:17:18;102627.53;;;10.43;67.23
66945;BME280;53853;51.982;5.928;2023-05-19T01:19:56;102621.56;;;10.39;67.51
66945;BME280;53853;51.982;5.928;2023-05-19T01:22:45;102619.09;;;10.36;68.04
66945;BME280;53853;51.982;5.928;2023-05-19T01:25:43;102620.16;;;10.33;67.76
66945;BME280;53853;51.982;5.928;2023-05-19T01:31:29;102622.91;;;10.32;67.89
66945;BME280;53853;51.982;5.928;2023-05-19T01:34:00;102616.81;;;10.30;68.09
66945;BME280;53853;51.982;5.928;2023-05-19T01:36:31;102623.09;;;10.29;68.34
66945;BME280;53853;51.982;5.928;2023-05-19T01:39:02;102615.97;;;10.29;68.09
66945;BME280;53853;51.982;5.928;2023-05-19T01:41:33;102614.25;;;10.28;68.11
66945;BME280;53853;51.982;5.928;2023-05-19T01:44:03;102610.75;;;10.28;68.25
66945;BME280;53853;51.982;5.928;2023-05-19T01:46:36;102614.47;;;10.25;68.29
66945;BME280;53853;51.982;5.928;2023-05-19T01:49:06;102615.53;;;10.23;68.44
66945;BME280;53853;51.982;5.928;2023-05-19T01:51:36;102619.38;;;10.19;68.60
66945;BME280;53853;51.982;5.928;2023-05-19T01:54:06;102614.25;;;10.15;68.87
66945;BME280;53853;51.982;5.928;2023-05-19T01:56:41;102608.91;;;10.15;68.72
66945;BME280;53853;51.982;5.928;2023-05-19T01:59:26;102617.13;;;10.12;68.80
66945;BME280;53853;51.982;5.928;2023-05-19T02:02:02;102611.16;;;10.09;68.80
66945;BME280;53853;51.982;5.928;2023-05-19T02:04:42;102608.78;;;10.04;68.96
66945;BME280;53853;51.982;5.928;2023-05-19T02:07:18;102613.44;;;10.01;69.36
66945;BME280;53853;51.982;5.928;2023-05-19T02:09:55;102602.88;;;9.99;69.70
66945;BME280;53853;51.982;5.928;2023-05-19T02:12:33;102602.16;;;9.97;69.77
66945;BME280;53853;51.982;5.928;2023-05-19T02:15:06;102603.00;;;9.97;69.64
66945;BME280;53853;51.982;5.928;2023-05-19T02:17:42;102603.13;;;9.96;69.77
66945;BME280;53853;51.982;5.928;2023-05-19T02:20:14;102605.00;;;9.94;69.91
66945;BME280;53853;51.982;5.928;2023-05-19T02:22:45;102598.19;;;9.90;70.35
66945;BME280;53853;51.982;5.928;2023-05-19T02:25:14;102600.78;;;9.91;69.92
66945;BME280;53853;51.982;5.928;2023-05-19T02:27:44;102600.09;;;9.88;70.03
66945;BME280;53853;51.982;5.928;2023-05-19T02:30:14;102600.41;;;9.83;70.31
66945;BME280;53853;51.982;5.928;2023-05-19T02:32:47;102596.16;;;9.81;70.28
66945;BME280;53853;51.982;5.928;2023-05-19T02:35:17;102602.41;;;9.79;70.23
66945;BME280;53853;51.982;5.928;2023-05-19T02:37:47;102599.00;;;9.77;70.43
66945;BME280;53853;51.982;5.928;2023-05-19T02:40:18;102591.97;;;9.76;70.62
66945;BME280;53853;51.982;5.928;2023-05-19T02:42:48;102592.16;;;9.73;70.87
66945;BME280;53853;51.982;5.928;2023-05-19T02:45:18;102588.75;;;9.71;71.05
66945;BME280;53853;51.982;5.928;2023-05-19T02:47:50;102595.13;;;9.69;70.80
66945;BME280;53853;51.982;5.928;2023-05-19T02:50:21;102595.53;;;9.63;71.58
66945;BME280;53853;51.982;5.928;2023-05-19T02:52:51;102588.41;;;9.63;71.04
66945;BME280;53853;51.982;5.928;2023-05-19T02:55:21;102577.97;;;9.60;71.45
66945;BME280;53853;51.982;5.928;2023-05-19T02:57:51;102584.22;;;9.59;71.36
66945;BME280;53853;51.982;5.928;2023-05-19T03:00:21;102584.44;;;9.56;71.96
66945;BME280;53853;51.982;5.928;2023-05-19T03:02:54;102583.78;;;9.52;72.27
66945;BME280;53853;51.982;5.928;2023-05-19T03:05:28;102584.72;;;9.51;72.65
66945;BME280;53853;51.982;5.928;2023-05-19T03:07:58;102584.84;;;9.50;72.60
66945;BME280;53853;51.982;5.928;2023-05-19T03:10:28;102581.31;;;9.49;72.69
66945;BME280;53853;51.982;5.928;2023-05-19T03:12:58;102581.22;;;9.51;72.20
66945;BME280;53853;51.982;5.928;2023-05-19T03:15:28;102586.00;;;9.46;73.12
66945;BME280;53853;51.982;5.928;2023-05-19T03:18:01;102586.19;;;9.42;73.23
66945;BME280;53853;51.982;5.928;2023-05-19T03:20:30;102591.41;;;9.44;73.57
66945;BME280;53853;51.982;5.928;2023-05-19T03:23:00;102586.84;;;9.46;73.03
66945;BME280;53853;51.982;5.928;2023-05-19T03:25:30;102592.25;;;9.45;73.55
66945;BME280;53853;51.982;5.928;2023-05-19T03:28:00;102589.59;;;9.45;73.44
66945;BME280;53853;51.982;5.928;2023-05-19T03:30:30;102580.78;;;9.44;73.39
66945;BME280;53853;51.982;5.928;2023-05-19T03:33:13;102581.63;;;9.45;73.12
66945;BME280;53853;51.982;5.928;2023-05-19T03:35:43;102580.88;;;9.42;73.52
66945;BME280;53853;51.982;5.928;2023-05-19T03:38:14;102582.56;;;9.43;73.32
66945;BME280;53853;51.982;5.928;2023-05-19T03:40:51;102578.22;;;9.42;73.93
66945;BME280;53853;51.982;5.928;2023-05-19T03:43:21;102585.13;;;9.45;73.59
66945;BME280;53853;51.982;5.928;2023-05-19T03:45:58;102579.91;;;9.43;73.61
66945;BME280;53853;51.982;5.928;2023-05-19T03:48:50;102581.72;;;9.43;73.70
66945;BME280;53853;51.982;5.928;2023-05-19T03:51:39;102591.31;;;9.46;73.37
66945;BME280;53853;51.982;5.928;2023-05-19T03:54:25;102585.22;;;9.43;73.98
66945;BME280;53853;51.982;5.928;2023-05-19T03:56:56;102585.03;;;9.47;73.87
66945;BME280;53853;51.982;5.928;2023-05-19T03:59:26;102585.81;;;9.49;74.05
66945;BME280;53853;51.982;5.928;2023-05-19T04:01:57;102589.13;;;9.52;73.80
66945;BME280;53853;51.982;5.928;2023-05-19T04:04:29;102593.41;;;9.55;73.75
66945;BME280;53853;51.982;5.928;2023-05-19T04:06:59;102594.97;;;9.57;73.64
66945;BME280;53853;51.982;5.928;2023-05-19T04:09:29;102597.44;;;9.60;73.30
66945;BME280;53853;51.982;5.928;2023-05-19T04:12:01;102590.31;;;9.61;73.67
66945;BME280;53853;51.982;5.928;2023-05-19T04:14:31;102607.06;;;9.63;73.62
66945;BME280;53853;51.982;5.928;2023-05-19T04:17:01;102604.50;;;9.61;73.46
66945;BME280;53853;51.982;5.928;2023-05-19T04:19:33;102606.06;;;9.64;73.37
66945;BME280;53853;51.982;5.928;2023-05-19T04:22:03;102601.53;;;9.66;73.34
66945;BME280;53853;51.982;5.928;2023-05-19T04:24:33;102602.47;;;9.65;73.21
66945;BME280;53853;51.982;5.928;2023-05-19T04:27:04;102604.00;;;9.69;73.13
66945;BME280;53853;51.982;5.928;2023-05-19T04:29:37;102603.00;;;9.70;72.85
66945;BME280;53853;51.982;5.928;2023-05-19T04:32:07;102597.50;;;9.73;72.81
66945;BME280;53853;51.982;5.928;2023-05-19T04:34:42;102604.53;;;9.74;72.77
66945;BME280;53853;51.982;5.928;2023-05-19T04:37:15;102602.63;;;9.76;72.44
66945;BME280;53853;51.982;5.928;2023-05-19T04:39:45;102599.75;;;9.79;72.56
66945;BME280;53853;51.982;5.928;2023-05-19T04:42:16;102600.41;;;9.83;72.37
66945;BME280;53853;51.982;5.928;2023-05-19T04:44:47;102591.56;;;9.83;72.35
66945;BME280;53853;51.982;5.928;2023-05-19T04:47:18;102591.38;;;9.86;72.14
66945;BME280;53853;51.982;5.928;2023-05-19T04:49:56;102587.66;;;9.88;72.04
66945;BME280;53853;51.982;5.928;2023-05-19T04:52:26;102587.25;;;9.94;71.87
66945;BME280;53853;51.982;5.928;2023-05-19T04:54:56;102577.22;;;9.98;71.69
66945;BME280;53853;51.982;5.928;2023-05-19T04:57:26;102579.50;;;10.04;71.58
66945;BME280;53853;51.982;5.928;2023-05-19T04:59:56;102584.59;;;10.07;71.39
66945;BME280;53853;51.982;5.928;2023-05-19T05:02:28;102580.66;;;10.13;71.21
66945;BME280;53853;51.982;5.928;2023-05-19T05:05:02;102582.06;;;10.19;71.04
66945;BME280;53853;51.982;5.928;2023-05-19T05:07:32;102592.94;;;10.28;71.14
66945;BME280;53853;51.982;5.928;2023-05-19T05:10:03;102593.41;;;10.48;71.31
66945;BME280;53853;51.982;5.928;2023-05-19T05:12:33;102583.50;;;10.76;71.56
66945;BME280;53853;51.982;5.928;2023-05-19T05:15:05;102592.31;;;11.02;71.23
66945;BME280;53853;51.982;5.928;2023-05-19T05:17:37;102594.72;;;11.18;69.79
66945;BME280;53853;51.982;5.928;2023-05-19T05:20:11;102600.78;;;11.33;69.12
66945;BME280;53853;51.982;5.928;2023-05-19T05:22:42;102596.25;;;11.46;68.52
66945;BME280;53853;51.982;5.928;2023-05-19T05:25:14;102606.47;;;11.52;68.18
66945;BME280;53853;51.982;5.928;2023-05-19T05:27:45;102597.06;;;11.59;67.34
66945;BME280;53853;51.982;5.928;2023-05-19T05:30:14;102601.97;;;11.66;66.52
66945;BME280;53853;51.982;5.928;2023-05-19T05:32:45;102603.69;;;11.78;66.81
66945;BME280;53853;51.982;5.928;2023-05-19T05:35:32;102608.44;;;11.99;66.86
66945;BME280;53853;51.982;5.928;2023-05-19T05:38:03;102606.69;;;12.22;66.85
66945;BME280;53853;51.982;5.928;2023-05-19T05:40:34;102605.13;;;12.42;66.38
66945;BME280;53853;51.982;5.928;2023-05-19T05:43:05;102611.16;;;12.57;65.71
66945;BME280;53853;51.982;5.928;2023-05-19T05:45:41;102610.44;;;12.66;64.84
66945;BME280;53853;51.982;5.928;2023-05-19T05:48:11;102612.50;;;12.74;64.69
66945;BME280;53853;51.982;5.928;2023-05-19T05:50:45;102612.38;;;12.75;63.53
66945;BME280;53853;51.982;5.928;2023-05-19T05:53:20;102605.94;;;12.78;63.04
66945;BME280;53853;51.982;5.928;2023-05-19T05:55:53;102607.88;;;12.76;62.00
66945;BME280;53853;51.982;5.928;2023-05-19T05:58:27;102603.25;;;12.78;62.68
66945;BME280;53853;51.982;5.928;2023-05-19T06:00:58;102606.81;;;12.78;62.25
66945;BME280;53853;51.982;5.928;2023-05-19T06:03:28;102605.81;;;12.79;62.49
66945;BME280;53853;51.982;5.928;2023-05-19T06:06:06;102595.72;;;12.83;62.77
66945;BME280;53853;51.982;5.928;2023-05-19T06:08:36;102597.19;;;12.87;62.75
66945;BME280;53853;51.982;5.928;2023-05-19T06:11:06;102600.69;;;12.87;62.27
66945;BME280;53853;51.982;5.928;2023-05-19T06:13:39;102591.72;;;12.89;61.25
66945;BME280;53853;51.982;5.928;2023-05-19T06:16:13;102596.94;;;12.90;61.33
66945;BME280;53853;51.982;5.928;2023-05-19T06:18:46;102601.22;;;12.93;61.37
66945;BME280;53853;51.982;5.928;2023-05-19T06:21:18;102598.88;;;12.99;61.28
66945;BME280;53853;51.982;5.928;2023-05-19T06:23:48;102599.34;;;13.04;61.33
66945;BME280;53853;51.982;5.928;2023-05-19T06:26:18;102598.03;;;13.10;61.57
66945;BME280;53853;51.982;5.928;2023-05-19T06:28:48;102591.91;;;13.19;61.53
66945;BME280;53853;51.982;5.928;2023-05-19T06:31:18;102593.50;;;13.22;60.42
66945;BME280;53853;51.982;5.928;2023-05-19T06:33:54;102599.31;;;13.27;60.02
66945;BME280;53853;51.982;5.928;2023-05-19T06:36:27;102600.56;;;13.34;59.60
66945;BME280;53853;51.982;5.928;2023-05-19T06:38:58;102595.09;;;13.36;59.32
66945;BME280;53853;51.982;5.928;2023-05-19T06:41:28;102593.00;;;13.39;58.90
66945;BME280;53853;51.982;5.928;2023-05-19T06:43:58;102593.00;;;13.39;58.54
66945;BME280;53853;51.982;5.928;2023-05-19T06:46:32;102593.72;;;13.41;58.58
66945;BME280;53853;51.982;5.928;2023-05-19T06:49:02;102590.47;;;13.38;56.89
66945;BME280;53853;51.982;5.928;2023-05-19T06:51:39;102593.72;;;13.41;57.70
66945;BME280;53853;51.982;5.928;2023-05-19T06:54:09;102595.31;;;13.44;57.67
66945;BME280;53853;51.982;5.928;2023-05-19T06:56:42;102594.94;;;13.49;56.78
66945;BME280;53853;51.982;5.928;2023-05-19T06:59:12;102598.81;;;13.56;57.83
66945;BME280;53853;51.982;5.928;2023-05-19T07:01:42;102587.34;;;13.65;58.17
66945;BME280;53853;51.982;5.928;2023-05-19T07:04:12;102594.63;;;13.74;58.53
66945;BME280;53853;51.982;5.928;2023-05-19T07:06:44;102592.25;;;13.81;57.85
66945;BME280;53853;51.982;5.928;2023-05-19T07:09:16;102597.97;;;13.88;56.85
66945;BME280;53853;51.982;5.928;2023-05-19T07:11:46;102590.03;;;13.98;57.07
66945;BME280;53853;51.982;5.928;2023-05-19T07:14:16;102596.81;;;14.02;56.61
66945;BME280;53853;51.982;5.928;2023-05-19T07:16:46;102598.84;;;14.09;57.07
66945;BME280;53853;51.982;5.928;2023-05-19T07:19:17;102601.00;;;14.16;56.71
66945;BME280;53853;51.982;5.928;2023-05-19T07:21:50;102592.44;;;14.22;55.89
66945;BME280;53853;51.982;5.928;2023-05-19T07:24:21;102593.28;;;14.22;55.34
66945;BME280;53853;51.982;5.928;2023-05-19T07:26:50;102589.88;;;14.20;55.26
66945;BME280;53853;51.982;5.928;2023-05-19T07:29:20;102593.28;;;14.22;54.90
66945;BME280;53853;51.982;5.928;2023-05-19T07:31:50;102596.84;;;14.23;55.87
66945;BME280;53853;51.982;5.928;2023-05-19T07:34:23;102601.06;;;14.25;56.28
66945;BME280;53853;51.982;5.928;2023-05-19T07:36:56;102601.94;;;14.26;55.98
66945;BME280;53853;51.982;5.928;2023-05-19T07:39:26;102609.31;;;14.34;54.14
66945;BME280;53853;51.982;5.928;2023-05-19T07:41:58;102600.59;;;14.41;54.82
66945;BME280;53853;51.982;5.928;2023-05-19T07:44:27;102599.69;;;14.52;55.09
66945;BME280;53853;51.982;5.928;2023-05-19T07:46:58;102604.03;;;14.64;55.44
66945;BME280;53853;51.982;5.928;2023-05-19T07:49:28;102596.72;;;14.76;53.11
66945;BME280;53853;51.982;5.928;2023-05-19T07:52:00;102595.91;;;14.85;53.67
66945;BME280;53853;51.982;5.928;2023-05-19T07:54:30;102598.50;;;14.97;51.96
66945;BME280;53853;51.982;5.928;2023-05-19T07:57:00;102594.03;;;15.07;53.42
66945;BME280;53853;51.982;5.928;2023-05-19T07:59:30;102587.97;;;15.15;52.68
66945;BME280;53853;51.982;5.928;2023-05-19T08:02:00;102589.25;;;15.20;50.52
66945;BME280;53853;51.982;5.928;2023-05-19T08:04:29;102587.47;;;15.31;51.56
66945;BME280;53853;51.982;5.928;2023-05-19T08:07:02;102584.66;;;15.42;52.87
66945;BME280;53853;51.982;5.928;2023-05-19T08:09:32;102590.88;;;15.52;52.12
66945;BME280;53853;51.982;5.928;2023-05-19T08:12:02;102586.22;;;15.64;52.76
66945;BME280;53853;51.982;5.928;2023-05-19T08:14:32;102571.81;;;15.75;51.45
66945;BME280;53853;51.982;5.928;2023-05-19T08:17:03;102574.66;;;15.83;50.73
66945;BME280;53853;51.982;5.928;2023-05-19T08:19:33;102577.47;;;15.91;50.54
66945;BME280;53853;51.982;5.928;2023-05-19T08:22:05;102574.78;;;16.01;49.19
66945;BME280;53853;51.982;5.928;2023-05-19T08:24:35;102573.38;;;16.07;50.12
66945;BME280;53853;51.982;5.928;2023-05-19T08:27:05;102566.69;;;16.11;50.13
66945;BME280;53853;51.982;5.928;2023-05-19T08:29:35;102582.56;;;16.14;49.49
66945;BME280;53853;51.982;5.928;2023-05-19T08:32:05;102568.53;;;16.20;50.26
66945;BME280;53853;51.982;5.928;2023-05-19T08:34:35;102563.25;;;16.28;50.23
66945;BME280;53853;51.982;5.928;2023-05-19T08:37:08;102566.38;;;16.34;49.89
66945;BME280;53853;51.982;5.928;2023-05-19T08:39:37;102559.88;;;16.26;47.34
66945;BME280;53853;51.982;5.928;2023-05-19T08:42:07;102560.56;;;16.28;47.90
66945;BME280;53853;51.982;5.928;2023-05-19T08:44:38;102556.59;;;16.33;47.72
66945;BME280;53853;51.982;5.928;2023-05-19T08:47:10;102555.31;;;16.37;48.66
66945;BME280;53853;51.982;5.928;2023-05-19T08:49:44;102551.06;;;16.44;45.83
66945;BME280;53853;51.982;5.928;2023-05-19T08:52:24;102538.88;;;16.50;47.34
66945;BME280;53853;51.982;5.928;2023-05-19T08:54:59;102546.16;;;16.57;47.77
66945;BME280;53853;51.982;5.928;2023-05-19T08:57:31;102531.16;;;16.64;46.89
66945;BME280;53853;51.982;5.928;2023-05-19T09:00:03;102532.25;;;16.72;48.21
66945;BME280;53853;51.982;5.928;2023-05-19T09:02:35;102539.41;;;16.81;48.58
66945;BME280;53853;51.982;5.928;2023-05-19T09:05:06;102535.16;;;16.88;46.08
66945;BME280;53853;51.982;5.928;2023-05-19T09:07:39;102523.41;;;16.89;43.32
66945;BME280;53853;51.982;5.928;2023-05-19T09:10:10;102528.50;;;16.92;43.42
66945;BME280;53853;51.982;5.928;2023-05-19T09:12:44;102536.66;;;17.00;42.59
66945;BME280;53853;51.982;5.928;2023-05-19T09:15:16;102534.38;;;17.06;42.27
66945;BME280;53853;51.982;5.928;2023-05-19T09:17:47;102534.06;;;17.09;41.72
66945;BME280;53853;51.982;5.928;2023-05-19T09:20:17;102520.28;;;17.12;42.76
66945;BME280;53853;51.982;5.928;2023-05-19T09:22:49;102523.38;;;17.17;42.63
66945;BME280;53853;51.982;5.928;2023-05-19T09:25:19;102515.81;;;17.20;43.89
66945;BME280;53853;51.982;5.928;2023-05-19T09:27:50;102513.69;;;17.24;43.24
66945;BME280;53853;51.982;5.928;2023-05-19T09:30:23;102512.81;;;17.24;41.58
66945;BME280;53853;51.982;5.928;2023-05-19T09:32:53;102521.78;;;17.24;42.63
66945;BME280;53853;51.982;5.928;2023-05-19T09:35:23;102508.53;;;17.31;41.55
66945;BME280;53853;51.982;5.928;2023-05-19T09:37:56;102508.91;;;17.36;42.63
66945;BME280;53853;51.982;5.928;2023-05-19T09:40:27;102502.06;;;17.42;40.91
66945;BME280;53853;51.982;5.928;2023-05-19T09:42:57;102497.81;;;17.39;41.16
66945;BME280;53853;51.982;5.928;2023-05-19T09:45:28;102499.75;;;17.47;42.20
66945;BME280;53853;51.982;5.928;2023-05-19T09:48:03;102504.16;;;17.48;40.54
66945;BME280;53853;51.982;5.928;2023-05-19T09:50:33;102506.44;;;17.43;41.19
66945;BME280;53853;51.982;5.928;2023-05-19T09:53:05;102494.06;;;17.50;42.41
66945;BME280;53853;51.982;5.928;2023-05-19T09:55:36;102507.91;;;17.55;41.45
66945;BME280;53853;51.982;5.928;2023-05-19T09:58:06;102518.69;;;17.55;40.91
66945;BME280;53853;51.982;5.928;2023-05-19T10:00:37;102514.44;;;17.52;41.36
66945;BME280;53853;51.982;5.928;2023-05-19T10:03:08;102501.97;;;17.51;40.65
66945;BME280;53853;51.982;5.928;2023-05-19T10:05:39;102509.91;;;17.53;42.03
66945;BME280;53853;51.982;5.928;2023-05-19T10:08:12;102500.19;;;17.60;40.02
66945;BME280;53853;51.982;5.928;2023-05-19T10:10:45;102501.59;;;17.64;40.76
66945;BME280;53853;51.982;5.928;2023-05-19T10:13:15;102498.41;;;17.69;42.17
66945;BME280;53853;51.982;5.928;2023-05-19T10:15:46;102495.25;;;17.73;41.68
66945;BME280;53853;51.982;5.928;2023-05-19T10:18:19;102495.47;;;17.80;41.11
66945;BME280;53853;51.982;5.928;2023-05-19T10:20:49;102498.53;;;17.85;40.20
66945;BME280;53853;51.982;5.928;2023-05-19T10:23:23;102497.41;;;17.88;40.52
66945;BME280;53853;51.982;5.928;2023-05-19T10:25:56;102492.84;;;17.88;40.99
66945;BME280;53853;51.982;5.928;2023-05-19T10:28:34;102483.94;;;17.88;40.87
66945;BME280;53853;51.982;5.928;2023-05-19T10:31:08;102477.50;;;17.89;40.47
66945;BME280;53853;51.982;5.928;2023-05-19T10:33:41;102473.34;;;17.95;39.88
66945;BME280;53853;51.982;5.928;2023-05-19T10:36:37;102470.19;;;17.99;41.93
66945;BME280;53853;51.982;5.928;2023-05-19T10:39:17;102477.47;;;18.07;41.67
66945;BME280;53853;51.982;5.928;2023-05-19T10:42:00;102472.75;;;18.09;40.63
66945;BME280;53853;51.982;5.928;2023-05-19T10:44:39;102470.53;;;18.04;38.00
66945;BME280;53853;51.982;5.928;2023-05-19T10:47:14;102470.28;;;17.89;38.48
66945;BME280;53853;51.982;5.928;2023-05-19T10:49:52;102475.84;;;17.88;39.86
66945;BME280;53853;51.982;5.928;2023-05-19T10:52:23;102471.97;;;17.90;39.62
66945;BME280;53853;51.982;5.928;2023-05-19T10:54:58;102462.09;;;17.99;40.27
66945;BME280;53853;51.982;5.928;2023-05-19T10:57:30;102470.38;;;18.06;39.42
66945;BME280;53853;51.982;5.928;2023-05-19T11:00:03;102460.09;;;18.09;40.70
66945;BME280;53853;51.982;5.928;2023-05-19T11:02:39;102452.75;;;18.20;40.80
66945;BME280;53853;51.982;5.928;2023-05-19T11:05:11;102452.47;;;18.31;40.10
66945;BME280;53853;51.982;5.928;2023-05-19T11:07:43;102446.75;;;18.34;39.99
66945;BME280;53853;51.982;5.928;2023-05-19T11:10:22;102445.44;;;18.38;38.84
66945;BME280;53853;51.982;5.928;2023-05-19T11:12:52;102456.22;;;18.38;39.19
66945;BME280;53853;51.982;5.928;2023-05-19T11:15:26;102450.84;;;18.38;39.14
66945;BME280;53853;51.982;5.928;2023-05-19T11:17:56;102450.44;;;18.33;38.34
66945;BME280;53853;51.982;5.928;2023-05-19T11:20:27;102448.31;;;18.45;38.53
66945;BME280;53853;51.982;5.928;2023-05-19T11:23:04;102453.25;;;18.58;39.73
66945;BME280;53853;51.982;5.928;2023-05-19T11:25:44;102446.88;;;18.67;38.92
66945;BME280;53853;51.982;5.928;2023-05-19T11:28:16;102452.78;;;18.71;39.38
66945;BME280;53853;51.982;5.928;2023-05-19T11:30:47;102449.44;;;18.77;37.64
66945;BME280;53853;51.982;5.928;2023-05-19T11:33:19;102438.28;;;18.72;38.00
66945;BME280;53853;51.982;5.928;2023-05-19T11:35:54;102438.63;;;18.77;37.43
66945;BME280;53853;51.982;5.928;2023-05-19T11:38:26;102441.34;;;18.77;38.26
66945;BME280;53853;51.982;5.928;2023-05-19T11:40:59;102432.91;;;18.80;38.81
66945;BME280;53853;51.982;5.928;2023-05-19T11:43:29;102443.25;;;18.85;37.67
66945;BME280;53853;51.982;5.928;2023-05-19T11:46:00;102433.94;;;18.87;37.08
66945;BME280;53853;51.982;5.928;2023-05-19T11:48:30;102430.38;;;18.78;36.57
66945;BME280;53853;51.982;5.928;2023-05-19T11:51:00;102439.50;;;18.86;38.46
66945;BME280;53853;51.982;5.928;2023-05-19T11:53:30;102425.69;;;18.89;38.03
66945;BME280;53853;51.982;5.928;2023-05-19T11:56:05;102428.06;;;19.00;38.26
66945;BME280;53853;51.982;5.928;2023-05-19T11:58:37;102429.09;;;19.07;37.14
66945;BME280;53853;51.982;5.928;2023-05-19T12:01:06;102428.41;;;19.13;36.93
66945;BME280;53853;51.982;5.928;2023-05-19T12:03:37;102418.44;;;19.22;38.52
66945;BME280;53853;51.982;5.928;2023-05-19T12:06:07;102425.38;;;19.33;38.67
66945;BME280;53853;51.982;5.928;2023-05-19T12:08:36;102423.03;;;19.46;37.75
66945;BME280;53853;51.982;5.928;2023-05-19T12:11:10;102421.63;;;19.59;37.50
66945;BME280;53853;51.982;5.928;2023-05-19T12:13:40;102422.84;;;19.56;36.03
66945;BME280;53853;51.982;5.928;2023-05-19T12:16:10;102429.25;;;19.55;34.72
66945;BME280;53853;51.982;5.928;2023-05-19T12:18:39;102419.47;;;19.54;35.24
66945;BME280;53853;51.982;5.928;2023-05-19T12:21:09;102426.56;;;19.55;35.74
66945;BME280;53853;51.982;5.928;2023-05-19T12:23:40;102418.28;;;19.57;36.23
66945;BME280;53853;51.982;5.928;2023-05-19T12:26:13;102419.28;;;19.64;37.24
66945;BME280;53853;51.982;5.928;2023-05-19T12:28:45;102409.13;;;19.74;37.20
66945;BME280;53853;51.982;5.928;2023-05-19T12:31:15;102417.41;;;19.81;36.41
66945;BME280;53853;51.982;5.928;2023-05-19T12:33:47;102416.88;;;19.85;35.94
66945;BME280;53853;51.982;5.928;2023-05-19T12:36:17;102416.72;;;19.87;34.60
66945;BME280;53853;51.982;5.928;2023-05-19T12:38:53;102415.91;;;19.78;34.91
66945;BME280;53853;51.982;5.928;2023-05-19T12:41:26;102409.81;;;19.84;36.54
66945;BME280;53853;51.982;5.928;2023-05-19T12:43:57;102402.81;;;19.98;36.72
66945;BME280;53853;51.982;5.928;2023-05-19T12:46:27;102405.00;;;20.11;35.57
66945;BME280;53853;51.982;5.928;2023-05-19T12:49:01;102404.44;;;20.24;35.57
66945;BME280;53853;51.982;5.928;2023-05-19T12:51:30;102402.56;;;20.24;34.80
66945;BME280;53853;51.982;5.928;2023-05-19T12:54:02;102405.19;;;20.41;35.24
66945;BME280;53853;51.982;5.928;2023-05-19T12:56:34;102400.22;;;20.53;35.35
66945;BME280;53853;51.982;5.928;2023-05-19T12:59:04;102396.81;;;20.59;34.86
66945;BME280;53853;51.982;5.928;2023-05-19T13:01:36;102395.00;;;20.51;34.51
66945;BME280;53853;51.982;5.928;2023-05-19T13:04:06;102399.41;;;20.44;34.32
66945;BME280;53853;51.982;5.928;2023-05-19T13:06:35;102395.69;;;20.45;35.39
66945;BME280;53853;51.982;5.928;2023-05-19T13:09:05;102392.84;;;20.38;34.14
66945;BME280;53853;51.982;5.928;2023-05-19T13:11:39;102384.38;;;20.41;34.28
66945;BME280;53853;51.982;5.928;2023-05-19T13:14:10;102386.50;;;20.54;34.99
66945;BME280;53853;51.982;5.928;2023-05-19T13:16:41;102380.88;;;20.64;35.08
66945;BME280;53853;51.982;5.928;2023-05-19T13:19:13;102378.41;;;20.77;34.84
66945;BME280;53853;51.982;5.928;2023-05-19T13:21:43;102379.28;;;20.78;34.94